Time;durP1;ratioP1;P1;durP2;ratioP2;P2;SDS_P1;SDS_P2;PMS_P1;PMS_P2;Temp;Humidity;BMP_temperature;BMP_pressure;BME280_temperature;BME280_humidity;BME280_pressure;Samples;Min_cycle;Max_cycle;Signal;HPM_P1;HPM_P2
2021/11/05 00:00:35;;;;;;;6.60;2.15;;;;;;;;;;4994992;28;20545;-57
2021/11/05 00:03:07;;;;;;;5.10;2.47;;;;;;;;;;4995344;28;20414;-57
2021/11/05 00:05:34;;;;;;;3.10;1.98;;;;;;;;;;4995215;28;20477;-56
2021/11/05 00:08:07;;;;;;;2.78;1.58;;;;;;;;;;4995088;28;20042;-60
2021/11/05 00:10:34;;;;;;;2.97;1.63;;;;;;;;;;4994960;28;20108;-57
2021/11/05 00:13:01;;;;;;;3.47;1.90;;;;;;;;;;4994980;28;20445;-60
2021/11/05 00:15:28;;;;;;;5.15;2.58;;;;;;;;;;4994900;28;20072;-57
2021/11/05 00:17:54;;;;;;;9.20;1.92;;;;;;;;;;4994828;28;20046;-56
2021/11/05 00:20:20;;;;;;;3.80;1.80;;;;;;;;;;4994220;28;20618;-57
2021/11/05 00:22:47;;;;;;;2.78;2.25;;;;;;;;;;4994559;28;20379;-57
2021/11/05 00:25:13;;;;;;;6.03;2.00;;;;;;;;;;4994027;28;20047;-57
2021/11/05 00:27:40;;;;;;;11.60;2.63;;;;;;;;;;4997000;28;20554;-55
2021/11/05 00:30:07;;;;;;;2.85;1.42;;;;;;;;;;4994184;28;20042;-57
2021/11/05 00:32:34;;;;;;;2.90;1.70;;;;;;;;;;4994863;28;20053;-57
2021/11/05 00:35:00;;;;;;;3.33;1.98;;;;;;;;;;4993956;28;20042;-57
2021/11/05 00:37:26;;;;;;;2.88;1.77;;;;;;;;;;4994512;28;20173;-57
2021/11/05 00:39:53;;;;;;;4.03;1.90;;;;;;;;;;4994421;28;20042;-57
2021/11/05 00:42:19;;;;;;;6.97;1.67;;;;;;;;;;4993221;28;20076;-57
2021/11/05 00:44:46;;;;;;;3.85;1.73;;;;;;;;;;4977024;28;20046;-57
2021/11/05 00:47:12;;;;;;;3.78;1.95;;;;;;;;;;5001008;28;20482;-56
2021/11/05 00:49:39;;;;;;;2.83;1.55;;;;;;;;;;4998725;28;20509;-56
2021/11/05 00:52:05;;;;;;;3.25;1.60;;;;;;;;;;4993623;28;20128;-56
2021/11/05 00:54:31;;;;;;;5.88;1.90;;;;;;;;;;4989246;28;20054;-57
2021/11/05 00:56:58;;;;;;;3.53;1.85;;;;;;;;;;4994494;28;20086;-56
2021/11/05 00:59:24;;;;;;;1.88;1.38;;;;;;;;;;4994068;28;20050;-57
2021/11/05 01:01:50;;;;;;;3.38;1.70;;;;;;;;;;4993737;28;20058;-57
2021/11/05 01:04:16;;;;;;;1.55;1.05;;;;;;;;;;4993519;28;20077;-57
2021/11/05 01:06:43;;;;;;;5.35;2.30;;;;;;;;;;4994030;28;20121;-57
2021/11/05 01:09:09;;;;;;;5.85;1.98;;;;;;;;;;4994095;28;20375;-56
2021/11/05 01:11:36;;;;;;;3.40;2.03;;;;;;;;;;4993451;28;20066;-56
2021/11/05 01:14:02;;;;;;;3.92;1.52;;;;;;;;;;4993108;28;20038;-54
2021/11/05 01:16:29;;;;;;;2.22;1.27;;;;;;;;;;4993490;28;20101;-54
2021/11/05 01:18:55;;;;;;;3.10;1.83;;;;;;;;;;4993378;28;20549;-54
2021/11/05 01:21:22;;;;;;;5.65;2.00;;;;;;;;;;4993731;28;20108;-54
2021/11/05 01:23:48;;;;;;;2.35;1.55;;;;;;;;;;4993882;28;20049;-55
2021/11/05 01:26:15;;;;;;;2.78;1.83;;;;;;;;;;4993454;28;20058;-55
2021/11/05 01:28:41;;;;;;;3.53;2.08;;;;;;;;;;4992954;28;20090;-57
2021/11/05 01:31:07;;;;;;;3.42;2.05;;;;;;;;;;4993354;28;20053;-57
2021/11/05 01:33:34;;;;;;;3.05;1.50;;;;;;;;;;4993232;28;20062;-56
2021/11/05 01:36:00;;;;;;;2.05;1.10;;;;;;;;;;4993932;28;20049;-57
2021/11/05 01:38:27;;;;;;;2.42;1.23;;;;;;;;;;4993245;28;20105;-57
2021/11/05 01:40:53;;;;;;;2.70;1.25;;;;;;;;;;4993299;28;20075;-60
2021/11/05 01:43:20;;;;;;;2.50;1.40;;;;;;;;;;4992047;28;20043;-56
2021/11/05 01:45:48;;;;;;;1.73;0.80;;;;;;;;;;4992782;28;20057;-57
2021/11/05 01:48:15;;;;;;;3.38;1.55;;;;;;;;;;4993044;28;20100;-57
2021/11/05 01:50:41;;;;;;;2.45;1.30;;;;;;;;;;4993638;28;20126;-57
2021/11/05 01:53:08;;;;;;;5.07;1.70;;;;;;;;;;4992950;28;20132;-60
2021/11/05 01:55:34;;;;;;;3.15;1.42;;;;;;;;;;4992935;28;20053;-56
2021/11/05 01:58:00;;;;;;;2.35;1.52;;;;;;;;;;4993143;28;20042;-57
2021/11/05 02:00:28;;;;;;;2.40;1.40;;;;;;;;;;4992841;28;20062;-57
2021/11/05 02:02:55;;;;;;;1.77;1.20;;;;;;;;;;4992075;28;20081;-59
2021/11/05 02:05:21;;;;;;;2.53;1.42;;;;;;;;;;4992919;28;20357;-56
2021/11/05 02:07:51;;;;;;;3.33;1.33;;;;;;;;;;4992812;28;20054;-56
2021/11/05 02:10:18;;;;;;;2.22;1.58;;;;;;;;;;4992946;28;20070;-56
2021/11/05 02:12:45;;;;;;;2.25;1.33;;;;;;;;;;4992965;28;20042;-56
2021/11/05 02:15:13;;;;;;;6.30;1.73;;;;;;;;;;4992906;28;20538;-56
2021/11/05 02:17:39;;;;;;;7.32;1.10;;;;;;;;;;4993025;28;20125;-57
2021/11/05 02:20:07;;;;;;;1.55;0.93;;;;;;;;;;4992896;28;20042;-57
2021/11/05 02:22:34;;;;;;;3.30;1.58;;;;;;;;;;4992730;28;20181;-57
2021/11/05 02:25:00;;;;;;;3.08;1.77;;;;;;;;;;4992713;28;20128;-57
2021/11/05 02:27:30;;;;;;;2.22;1.30;;;;;;;;;;4992751;28;20042;-56
2021/11/05 02:29:57;;;;;;;2.50;0.93;;;;;;;;;;4993098;28;20448;-56
2021/11/05 02:32:24;;;;;;;6.18;1.80;;;;;;;;;;4992657;28;20073;-57
2021/11/05 02:34:50;;;;;;;2.05;1.38;;;;;;;;;;4992520;28;20081;-56
2021/11/05 02:37:25;;;;;;;1.92;1.17;;;;;;;;;;4992767;28;20053;-57
2021/11/05 02:39:52;;;;;;;2.25;1.60;;;;;;;;;;4992718;28;20077;-59
2021/11/05 02:42:19;;;;;;;3.75;1.33;;;;;;;;;;4991936;28;20054;-57
2021/11/05 02:44:45;;;;;;;4.28;1.65;;;;;;;;;;4992915;28;20128;-57
2021/11/05 02:47:20;;;;;;;2.72;1.80;;;;;;;;;;4992652;28;20078;-57
2021/11/05 02:49:47;;;;;;;3.08;1.50;;;;;;;;;;4992633;28;20444;-57
2021/11/05 02:52:14;;;;;;;2.33;1.45;;;;;;;;;;4992427;28;20062;-57
2021/11/05 02:54:40;;;;;;;3.25;1.88;;;;;;;;;;4992458;28;20058;-56
2021/11/05 02:57:07;;;;;;;5.38;1.63;;;;;;;;;;4993410;28;20046;-56
2021/11/05 02:59:33;;;;;;;2.50;1.70;;;;;;;;;;4995254;28;20073;-56
2021/11/05 03:02:00;;;;;;;3.63;1.52;;;;;;;;;;4996297;28;20065;-57
2021/11/05 03:04:26;;;;;;;2.35;1.60;;;;;;;;;;4996115;28;20398;-57
2021/11/05 03:06:58;;;;;;;3.63;1.92;;;;;;;;;;4996177;28;20094;-57
2021/11/05 03:09:24;;;;;;;2.28;1.50;;;;;;;;;;4996283;28;20046;-56
2021/11/05 03:11:50;;;;;;;2.88;1.58;;;;;;;;;;4996613;28;20046;-56
2021/11/05 03:14:16;;;;;;;3.00;1.60;;;;;;;;;;4995585;28;20477;-56
2021/11/05 03:16:43;;;;;;;2.75;1.48;;;;;;;;;;4995306;28;20045;-56
2021/11/05 03:19:09;;;;;;;1.80;1.20;;;;;;;;;;4994670;28;20046;-57
2021/11/05 03:21:36;;;;;;;2.40;1.58;;;;;;;;;;4995466;28;20058;-56
2021/11/05 03:24:02;;;;;;;3.42;1.55;;;;;;;;;;4996019;28;20097;-57
2021/11/05 03:26:28;;;;;;;2.88;1.70;;;;;;;;;;4995213;28;20058;-57
2021/11/05 03:28:54;;;;;;;2.40;1.40;;;;;;;;;;4994843;28;20066;-56
2021/11/05 03:31:21;;;;;;;3.85;1.80;;;;;;;;;;4995087;28;20046;-56
2021/11/05 03:33:47;;;;;;;2.88;2.08;;;;;;;;;;4994970;28;20402;-56
2021/11/05 03:36:14;;;;;;;2.67;1.23;;;;;;;;;;4995233;28;20498;-57
2021/11/05 03:38:41;;;;;;;8.25;2.15;;;;;;;;;;4995913;28;20074;-57
2021/11/05 03:41:07;;;;;;;2.20;1.38;;;;;;;;;;4995413;28;20047;-59
2021/11/05 03:43:34;;;;;;;3.17;1.60;;;;;;;;;;4995178;28;20085;-56
2021/11/05 03:46:01;;;;;;;2.30;1.05;;;;;;;;;;4995008;28;20495;-57
2021/11/05 03:48:28;;;;;;;3.05;1.20;;;;;;;;;;4978116;28;20053;-57
2021/11/05 03:50:54;;;;;;;3.90;1.63;;;;;;;;;;4995717;28;20050;-58
2021/11/05 03:53:20;;;;;;;3.38;1.15;;;;;;;;;;4995230;28;20050;-57
2021/11/05 03:55:47;;;;;;;4.05;1.60;;;;;;;;;;4995035;28;20562;-57
2021/11/05 03:58:13;;;;;;;2.10;1.45;;;;;;;;;;4995010;28;20502;-56
2021/11/05 04:00:39;;;;;;;2.10;1.38;;;;;;;;;;4995118;28;20074;-56
2021/11/05 04:03:06;;;;;;;2.90;1.60;;;;;;;;;;4995194;28;20046;-56
2021/11/05 04:05:32;;;;;;;6.57;1.92;;;;;;;;;;4995349;28;20525;-57
2021/11/05 04:07:58;;;;;;;1.88;1.30;;;;;;;;;;4994649;28;20085;-57
2021/11/05 04:10:25;;;;;;;2.90;1.30;;;;;;;;;;4994986;28;20070;-56
2021/11/05 04:12:51;;;;;;;2.97;1.80;;;;;;;;;;4994687;28;20042;-57
2021/11/05 04:15:17;;;;;;;2.60;1.70;;;;;;;;;;4994843;28;20042;-57
2021/11/05 04:17:43;;;;;;;3.17;1.63;;;;;;;;;;4995372;28;20122;-57
2021/11/05 04:20:10;;;;;;;2.97;1.65;;;;;;;;;;4994839;28;20046;-57
2021/11/05 04:22:37;;;;;;;1.77;1.30;;;;;;;;;;4994713;28;20048;-57
2021/11/05 04:25:03;;;;;;;4.32;1.95;;;;;;;;;;4977335;28;20088;-59
2021/11/05 04:27:30;;;;;;;4.70;1.50;;;;;;;;;;4978959;28;20100;-57
2021/11/05 04:29:56;;;;;;;2.28;1.25;;;;;;;;;;4995181;28;20561;-57
2021/11/05 04:32:22;;;;;;;2.88;1.48;;;;;;;;;;4994469;28;20082;-57
2021/11/05 04:34:49;;;;;;;2.92;1.88;;;;;;;;;;4994615;28;20085;-57
2021/11/05 04:37:15;;;;;;;2.35;1.52;;;;;;;;;;4994534;28;20113;-58
2021/11/05 04:39:41;;;;;;;3.00;1.65;;;;;;;;;;4994548;28;20046;-56
2021/11/05 04:42:08;;;;;;;3.55;1.90;;;;;;;;;;4994427;28;20080;-55
2021/11/05 04:44:34;;;;;;;4.57;2.47;;;;;;;;;;4993849;28;20049;-57
2021/11/05 04:47:00;;;;;;;4.85;1.92;;;;;;;;;;4994233;28;20042;-57
2021/11/05 04:49:27;;;;;;;4.00;2.22;;;;;;;;;;4993600;28;20073;-56
2021/11/05 04:51:53;;;;;;;3.10;1.67;;;;;;;;;;4994042;28;20050;-57
2021/11/05 04:54:19;;;;;;;1.90;1.15;;;;;;;;;;4993951;28;20046;-56
2021/11/05 04:56:47;;;;;;;4.43;2.13;;;;;;;;;;4994453;28;20169;-57
2021/11/05 04:59:16;;;;;;;2.40;1.50;;;;;;;;;;4994076;28;20042;-56
2021/11/05 05:01:42;;;;;;;3.30;1.65;;;;;;;;;;4993959;28;20058;-56
2021/11/05 05:04:08;;;;;;;3.03;1.95;;;;;;;;;;4993818;28;20085;-57
2021/11/05 05:06:35;;;;;;;2.83;1.73;;;;;;;;;;4993902;28;20046;-56
2021/11/05 05:09:01;;;;;;;1.90;1.40;;;;;;;;;;4994528;28;20414;-56
2021/11/05 05:11:28;;;;;;;5.45;1.80;;;;;;;;;;4993595;28;20054;-56
2021/11/05 05:13:54;;;;;;;2.67;1.75;;;;;;;;;;4993605;28;20053;-56
2021/11/05 05:16:21;;;;;;;3.55;1.38;;;;;;;;;;4993720;28;20053;-56
2021/11/05 05:18:47;;;;;;;2.83;1.77;;;;;;;;;;4976390;28;20455;-57
2021/11/05 05:21:14;;;;;;;3.97;1.75;;;;;;;;;;4993178;28;20078;-56
2021/11/05 05:23:40;;;;;;;4.10;2.35;;;;;;;;;;4994061;28;20379;-56
2021/11/05 05:26:06;;;;;;;3.70;1.48;;;;;;;;;;4993421;28;20085;-56
2021/11/05 05:28:33;;;;;;;5.80;2.40;;;;;;;;;;4993431;28;20486;-56
2021/11/05 05:31:00;;;;;;;3.58;1.90;;;;;;;;;;4993514;28;20558;-57
2021/11/05 05:33:27;;;;;;;2.75;1.63;;;;;;;;;;4993369;28;20072;-56
2021/11/05 05:35:53;;;;;;;3.10;1.90;;;;;;;;;;4993845;28;20062;-56
2021/11/05 05:38:19;;;;;;;3.92;1.88;;;;;;;;;;4993220;28;20142;-56
2021/11/05 05:40:45;;;;;;;3.53;1.75;;;;;;;;;;4993034;28;20085;-57
2021/11/05 05:43:12;;;;;;;3.97;2.03;;;;;;;;;;4993125;28;20058;-57
2021/11/05 05:45:38;;;;;;;10.40;2.42;;;;;;;;;;4993288;28;20047;-56
2021/11/05 05:48:05;;;;;;;5.45;2.47;;;;;;;;;;4993594;28;20082;-56
2021/11/05 05:50:31;;;;;;;4.05;2.28;;;;;;;;;;4993564;28;20414;-56
2021/11/05 05:52:58;;;;;;;3.28;1.88;;;;;;;;;;4992246;28;20047;-56
2021/11/05 05:55:25;;;;;;;3.85;1.83;;;;;;;;;;4975731;28;20180;-57
2021/11/05 05:57:51;;;;;;;4.28;2.35;;;;;;;;;;4993122;28;20049;-56
2021/11/05 06:00:18;;;;;;;4.65;2.50;;;;;;;;;;4993207;28;20116;-56
2021/11/05 06:02:45;;;;;;;3.60;2.00;;;;;;;;;;4993790;28;20498;-56
2021/11/05 06:05:12;;;;;;;6.95;2.28;;;;;;;;;;4992835;28;20108;-57
2021/11/05 06:07:38;;;;;;;4.22;2.20;;;;;;;;;;4992619;28;20046;-57
2021/11/05 06:10:05;;;;;;;4.07;2.25;;;;;;;;;;4993095;28;20073;-56
2021/11/05 06:12:32;;;;;;;5.18;2.17;;;;;;;;;;4977523;28;20047;-56
2021/11/05 06:14:59;;;;;;;3.55;2.33;;;;;;;;;;4993361;28;20548;-56
2021/11/05 06:17:25;;;;;;;4.13;2.17;;;;;;;;;;4992737;28;20108;-56
2021/11/05 06:19:52;;;;;;;5.00;2.40;;;;;;;;;;4992749;28;20137;-56
2021/11/05 06:22:19;;;;;;;4.82;2.28;;;;;;;;;;4975329;28;20050;-57
2021/11/05 06:24:46;;;;;;;3.95;2.03;;;;;;;;;;4992880;28;20498;-56
2021/11/05 06:27:12;;;;;;;4.28;2.45;;;;;;;;;;4993022;28;20112;-56
2021/11/05 06:29:39;;;;;;;6.18;1.80;;;;;;;;;;4993115;28;20104;-56
2021/11/05 06:32:06;;;;;;;6.28;2.88;;;;;;;;;;4982482;28;20454;-57
2021/11/05 06:34:32;;;;;;;3.20;1.98;;;;;;;;;;4996779;28;20077;-56
2021/11/05 06:36:58;;;;;;;4.03;2.20;;;;;;;;;;4996498;28;20413;-56
2021/11/05 06:39:25;;;;;;;4.32;2.33;;;;;;;;;;4996703;28;20497;-56
2021/11/05 06:41:51;;;;;;;8.73;2.67;;;;;;;;;;4995911;28;20039;-57
2021/11/05 06:44:18;;;;;;;6.72;3.17;;;;;;;;;;4996528;28;20050;-57
2021/11/05 06:46:44;;;;;;;5.53;2.88;;;;;;;;;;4996551;28;20117;-56
2021/11/05 06:49:11;;;;;;;6.70;2.20;;;;;;;;;;4996489;28;20466;-56
2021/11/05 06:51:37;;;;;;;3.92;2.60;;;;;;;;;;4996131;28;20125;-56
2021/11/05 06:54:03;;;;;;;4.05;2.20;;;;;;;;;;4995841;28;20061;-56
2021/11/05 06:56:30;;;;;;;6.30;2.20;;;;;;;;;;4995736;28;20046;-57
2021/11/05 06:58:56;;;;;;;6.50;2.60;;;;;;;;;;4995347;28;20049;-56
2021/11/05 07:01:24;;;;;;;2.90;2.00;;;;;;;;;;4995091;28;20074;-56
2021/11/05 07:03:50;;;;;;;4.78;2.85;;;;;;;;;;4995817;28;20042;-56
2021/11/05 07:06:17;;;;;;;3.65;2.28;;;;;;;;;;4996078;28;20054;-56
2021/11/05 07:08:43;;;;;;;5.45;2.95;;;;;;;;;;4996665;28;20103;-57
2021/11/05 07:11:09;;;;;;;5.22;2.80;;;;;;;;;;4996002;28;20058;-57
2021/11/05 07:13:36;;;;;;;5.00;2.60;;;;;;;;;;4995999;28;20069;-56
2021/11/05 07:16:03;;;;;;;5.85;2.58;;;;;;;;;;4996116;28;20128;-57
2021/11/05 07:18:31;;;;;;;2.90;2.00;;;;;;;;;;4995165;28;20046;-56
2021/11/05 07:20:59;;;;;;;9.07;2.92;;;;;;;;;;4996036;28;20039;-56
2021/11/05 07:23:26;;;;;;;6.80;2.67;;;;;;;;;;4995720;28;20078;-56
2021/11/05 07:25:52;;;;;;;4.40;2.42;;;;;;;;;;4995760;28;20085;-57
2021/11/05 07:28:18;;;;;;;5.97;3.22;;;;;;;;;;4995747;28;20042;-57
2021/11/05 07:30:45;;;;;;;3.88;2.13;;;;;;;;;;4992803;28;20074;-56
2021/11/05 07:33:11;;;;;;;4.82;2.78;;;;;;;;;;4993728;28;20048;-54
2021/11/05 07:35:37;;;;;;;4.22;2.38;;;;;;;;;;4994533;28;20081;-55
2021/11/05 07:38:04;;;;;;;3.47;2.20;;;;;;;;;;4991929;28;20133;-56
2021/11/05 07:40:31;;;;;;;3.80;2.35;;;;;;;;;;4993671;28;20061;-56
2021/11/05 07:42:58;;;;;;;12.98;3.47;;;;;;;;;;4993115;28;20057;-57
2021/11/05 07:45:25;;;;;;;5.88;2.72;;;;;;;;;;4993445;28;20089;-56
2021/11/05 07:47:55;;;;;;;4.55;2.97;;;;;;;;;;4994286;28;20042;-56
2021/11/05 07:50:21;;;;;;;6.10;2.35;;;;;;;;;;4993311;28;20049;-57
2021/11/05 07:52:48;;;;;;;4.72;2.60;;;;;;;;;;4993584;28;20134;-57
2021/11/05 07:55:14;;;;;;;3.70;2.30;;;;;;;;;;4993279;28;20522;-56
2021/11/05 07:57:41;;;;;;;5.22;2.92;;;;;;;;;;4993987;28;20042;-55
2021/11/05 08:00:12;;;;;;;4.25;2.38;;;;;;;;;;4993150;28;20092;-57
2021/11/05 08:02:39;;;;;;;5.55;3.08;;;;;;;;;;4992545;28;20054;-56
2021/11/05 08:05:08;;;;;;;3.17;2.15;;;;;;;;;;4993018;28;20084;-57
2021/11/05 08:07:35;;;;;;;7.80;2.75;;;;;;;;;;4991717;28;20585;-56
2021/11/05 08:10:01;;;;;;;4.60;2.72;;;;;;;;;;4993195;28;20062;-56
2021/11/05 08:12:27;;;;;;;5.93;3.05;;;;;;;;;;4993212;28;20565;-56
2021/11/05 08:14:54;;;;;;;4.63;2.65;;;;;;;;;;4993201;28;20541;-56
2021/11/05 08:17:20;;;;;;;3.63;1.80;;;;;;;;;;4993637;28;20057;-56
2021/11/05 08:19:46;;;;;;;3.40;1.98;;;;;;;;;;4993123;28;20379;-56
2021/11/05 08:22:13;;;;;;;3.55;2.05;;;;;;;;;;4993589;28;20066;-57
2021/11/05 08:24:39;;;;;;;3.13;1.95;;;;;;;;;;4993647;28;20121;-56
2021/11/05 08:27:06;;;;;;;7.55;2.45;;;;;;;;;;4993089;28;20077;-56
2021/11/05 08:29:32;;;;;;;6.78;2.90;;;;;;;;;;4978210;28;20034;-57
2021/11/05 08:31:59;;;;;;;5.18;2.45;;;;;;;;;;4992887;28;20046;-57
2021/11/05 08:34:25;;;;;;;2.53;1.67;;;;;;;;;;4992052;28;20065;-57
2021/11/05 08:36:51;;;;;;;4.85;2.70;;;;;;;;;;4992899;28;20045;-57
2021/11/05 08:39:18;;;;;;;4.22;2.53;;;;;;;;;;4991232;28;20102;-57
2021/11/05 08:41:44;;;;;;;7.32;3.88;;;;;;;;;;4989482;28;20117;-56
2021/11/05 08:44:11;;;;;;;11.32;2.97;;;;;;;;;;4990805;28;20454;-56
2021/11/05 08:46:37;;;;;;;4.10;2.53;;;;;;;;;;4990515;28;20121;-54
2021/11/05 08:49:10;;;;;;;4.60;2.83;;;;;;;;;;4989866;28;20056;-54
2021/11/05 08:51:37;;;;;;;4.63;2.60;;;;;;;;;;4987894;28;20117;-54
2021/11/05 08:54:03;;;;;;;4.38;2.38;;;;;;;;;;4990632;28;20104;-55
2021/11/05 08:56:29;;;;;;;6.63;2.20;;;;;;;;;;4991127;28;20049;-54
2021/11/05 08:58:56;;;;;;;3.80;2.17;;;;;;;;;;4989940;28;20050;-55
2021/11/05 09:01:22;;;;;;;5.28;2.95;;;;;;;;;;4991513;28;20092;-55
2021/11/05 09:03:49;;;;;;;5.03;2.40;;;;;;;;;;4990264;28;20391;-54
2021/11/05 09:06:15;;;;;;;5.55;3.10;;;;;;;;;;4990661;28;20148;-54
2021/11/05 09:08:43;;;;;;;4.82;2.55;;;;;;;;;;4990319;28;20038;-54
2021/11/05 09:11:11;;;;;;;5.60;3.00;;;;;;;;;;4990113;28;20050;-56
2021/11/05 09:13:37;;;;;;;5.13;2.47;;;;;;;;;;4992651;28;20073;-54
2021/11/05 09:16:04;;;;;;;5.78;2.95;;;;;;;;;;4978751;28;20050;-56
2021/11/05 09:18:31;;;;;;;5.00;2.45;;;;;;;;;;4992778;28;20057;-56
2021/11/05 09:20:59;;;;;;;6.40;3.08;;;;;;;;;;4992507;28;20082;-55
2021/11/05 09:23:25;;;;;;;7.40;3.08;;;;;;;;;;4992370;28;20046;-56
2021/11/05 09:25:51;;;;;;;4.57;2.60;;;;;;;;;;4992133;28;20133;-57
2021/11/05 09:28:18;;;;;;;3.60;2.50;;;;;;;;;;4991468;28;20085;-56
2021/11/05 09:30:44;;;;;;;3.92;2.58;;;;;;;;;;4990584;28;20050;-56
2021/11/05 09:33:11;;;;;;;3.38;1.75;;;;;;;;;;4992479;28;20081;-56
2021/11/05 09:35:38;;;;;;;4.63;2.63;;;;;;;;;;4990771;28;20117;-56
2021/11/05 09:38:04;;;;;;;3.65;2.45;;;;;;;;;;4990027;28;20077;-54
2021/11/05 09:40:31;;;;;;;5.05;2.60;;;;;;;;;;4985906;28;20042;-54
2021/11/05 09:42:58;;;;;;;5.45;2.92;;;;;;;;;;4988763;28;20053;-54
2021/11/05 09:45:26;;;;;;;4.80;2.65;;;;;;;;;;4989392;28;20050;-54
2021/11/05 09:47:55;;;;;;;7.22;3.05;;;;;;;;;;4989546;28;20047;-55
2021/11/05 09:50:23;;;;;;;6.57;3.10;;;;;;;;;;4989338;28;20132;-58
2021/11/05 09:52:49;;;;;;;4.65;2.67;;;;;;;;;;4991758;28;20046;-56
2021/11/05 09:55:16;;;;;;;5.53;2.78;;;;;;;;;;4992120;28;20046;-55
2021/11/05 09:57:42;;;;;;;5.03;3.28;;;;;;;;;;4991584;28;20084;-55
2021/11/05 10:00:11;;;;;;;4.10;2.45;;;;;;;;;;4989992;28;20064;-59
2021/11/05 10:02:42;;;;;;;4.55;2.40;;;;;;;;;;4992045;28;20501;-55
2021/11/05 10:05:11;;;;;;;2.67;1.73;;;;;;;;;;4990830;28;20078;-55
2021/11/05 10:07:54;;;;;;;6.65;3.17;;;;;;;;;;4990475;28;20557;-55
2021/11/05 10:10:22;;;;;;;7.30;2.38;;;;;;;;;;4991195;28;20140;-56
2021/11/05 10:13:01;;;;;;;5.18;2.90;;;;;;;;;;4991122;28;20046;-55
2021/11/05 10:15:30;;;;;;;5.22;2.65;;;;;;;;;;4990390;28;20120;-54
2021/11/05 10:18:07;;;;;;;4.32;2.65;;;;;;;;;;4990829;28;20185;-54
2021/11/05 10:20:33;;;;;;;5.78;2.97;;;;;;;;;;4990627;28;20129;-54
2021/11/05 10:23:02;;;;;;;7.90;2.55;;;;;;;;;;4990484;28;20509;-54
2021/11/05 10:25:30;;;;;;;6.25;3.22;;;;;;;;;;4991394;28;20476;-55
2021/11/05 10:28:06;;;;;;;5.85;3.53;;;;;;;;;;4990524;28;20076;-54
2021/11/05 10:30:33;;;;;;;3.58;2.58;;;;;;;;;;4990053;28;21210;-54
2021/11/05 10:33:01;;;;;;;6.85;3.47;;;;;;;;;;4990607;28;20069;-54
2021/11/05 10:35:28;;;;;;;5.47;3.30;;;;;;;;;;4990712;28;20457;-55
2021/11/05 10:37:55;;;;;;;4.68;3.15;;;;;;;;;;4974645;28;20062;-55
2021/11/05 10:40:22;;;;;;;10.82;3.83;;;;;;;;;;4991144;28;20081;-55
2021/11/05 10:42:49;;;;;;;5.85;2.53;;;;;;;;;;4990970;28;20513;-55
2021/11/05 10:45:23;;;;;;;6.63;3.10;;;;;;;;;;4990761;28;20129;-55
2021/11/05 10:47:53;;;;;;;4.78;3.28;;;;;;;;;;4991521;28;20082;-54
2021/11/05 10:50:20;;;;;;;5.13;3.22;;;;;;;;;;4991235;28;20054;-55
2021/11/05 10:52:59;;;;;;;7.32;3.28;;;;;;;;;;4991095;28;20132;-54
2021/11/05 10:55:37;;;;;;;5.72;3.28;;;;;;;;;;4991616;28;20063;-54
2021/11/05 10:58:04;;;;;;;3.75;2.60;;;;;;;;;;4991171;28;20053;-56
2021/11/05 11:00:31;;;;;;;6.60;3.45;;;;;;;;;;4990730;28;20078;-55
2021/11/05 11:03:08;;;;;;;4.90;2.63;;;;;;;;;;4991006;28;20057;-54
2021/11/05 11:05:37;;;;;;;5.90;2.50;;;;;;;;;;4989050;28;20043;-54
2021/11/05 11:08:04;;;;;;;4.60;2.42;;;;;;;;;;4988300;28;20054;-54
2021/11/05 11:10:34;;;;;;;3.67;2.00;;;;;;;;;;4986929;28;20058;-54
2021/11/05 11:13:01;;;;;;;4.43;2.10;;;;;;;;;;4989945;28;20158;-53
2021/11/05 11:15:37;;;;;;;4.03;1.73;;;;;;;;;;4989598;28;20517;-53
2021/11/05 11:18:04;;;;;;;5.18;1.52;;;;;;;;;;4990774;28;20526;-55
2021/11/05 11:20:32;;;;;;;2.65;1.67;;;;;;;;;;4995023;28;20050;-53
2021/11/05 11:23:00;;;;;;;2.60;1.67;;;;;;;;;;4992093;28;20049;-53
2021/11/05 11:25:26;;;;;;;2.67;1.48;;;;;;;;;;4998331;28;20089;-54
2021/11/05 11:27:53;;;;;;;3.67;1.83;;;;;;;;;;4994235;28;20081;-53
2021/11/05 11:30:20;;;;;;;2.45;1.23;;;;;;;;;;4995154;28;20053;-54
2021/11/05 11:32:47;;;;;;;6.15;2.97;;;;;;;;;;4996217;28;20117;-54
2021/11/05 11:35:13;;;;;;;7.65;2.42;;;;;;;;;;4994979;28;20081;-55
2021/11/05 11:37:40;;;;;;;3.42;1.70;;;;;;;;;;4994535;28;20065;-54
2021/11/05 11:40:07;;;;;;;1.38;1.00;;;;;;;;;;4993226;28;20085;-55
2021/11/05 11:42:33;;;;;;;2.10;1.00;;;;;;;;;;4998396;28;20042;-55
2021/11/05 11:45:00;;;;;;;1.30;1.00;;;;;;;;;;5003484;28;20055;-55
2021/11/05 11:47:26;;;;;;;2.33;1.15;;;;;;;;;;5000906;28;20125;-55
2021/11/05 11:49:52;;;;;;;1.35;0.70;;;;;;;;;;4986997;28;20042;-55
2021/11/05 11:52:19;;;;;;;1.48;0.98;;;;;;;;;;5003484;28;20169;-55
2021/11/05 11:54:52;;;;;;;2.08;0.95;;;;;;;;;;5002050;28;20050;-54
2021/11/05 11:57:20;;;;;;;2.10;1.15;;;;;;;;;;5002443;28;20048;-55
2021/11/05 12:00:01;;;;;;;1.95;1.00;;;;;;;;;;5002418;28;20082;-54
2021/11/05 12:02:39;;;;;;;1.58;1.13;;;;;;;;;;4984823;28;20498;-54
2021/11/05 12:05:21;;;;;;;2.47;0.95;;;;;;;;;;5000626;28;20058;-56
2021/11/05 12:08:06;;;;;;;2.78;1.52;;;;;;;;;;5000893;28;20449;-55
2021/11/05 12:10:32;;;;;;;2.15;1.30;;;;;;;;;;5004976;28;20066;-55
2021/11/05 12:12:59;;;;;;;1.27;0.90;;;;;;;;;;5002341;28;20061;-53
2021/11/05 12:15:25;;;;;;;1.77;1.25;;;;;;;;;;4998926;28;20654;-55
2021/11/05 12:17:51;;;;;;;3.28;1.25;;;;;;;;;;4993988;28;20513;-54
2021/11/05 12:20:35;;;;;;;4.20;2.05;;;;;;;;;;4993975;28;20047;-54
2021/11/05 12:23:11;;;;;;;2.58;1.50;;;;;;;;;;4993995;28;20085;-56
2021/11/05 12:26:01;;;;;;;2.60;1.42;;;;;;;;;;4990688;28;20569;-55
2021/11/05 12:28:30;;;;;;;1.88;1.20;;;;;;;;;;4987409;28;20129;-54
2021/11/05 12:31:17;;;;;;;2.78;1.40;;;;;;;;;;4993282;28;20050;-55
2021/11/05 12:33:43;;;;;;;3.55;1.42;;;;;;;;;;4989887;28;20138;-54
2021/11/05 12:36:09;;;;;;;1.60;1.02;;;;;;;;;;4993622;28;20117;-54
2021/11/05 12:38:58;;;;;;;2.30;1.27;;;;;;;;;;5001282;28;20050;-54
2021/11/05 12:41:24;;;;;;;2.58;1.33;;;;;;;;;;4980735;28;20525;-54
2021/11/05 12:43:50;;;;;;;1.55;0.90;;;;;;;;;;4991530;28;20053;-54
2021/11/05 12:46:18;;;;;;;2.95;1.83;;;;;;;;;;4991819;28;20398;-54
2021/11/05 12:48:47;;;;;;;4.75;1.90;;;;;;;;;;4993117;28;20076;-54
2021/11/05 12:51:18;;;;;;;3.95;2.38;;;;;;;;;;4992433;28;20046;-53
2021/11/05 12:53:54;;;;;;;6.65;2.38;;;;;;;;;;4992509;28;20046;-54
2021/11/05 12:56:22;;;;;;;4.28;1.95;;;;;;;;;;4992819;28;20134;-54
2021/11/05 12:58:48;;;;;;;2.72;1.90;;;;;;;;;;4992733;28;20038;-54
2021/11/05 13:01:16;;;;;;;5.32;1.67;;;;;;;;;;4992233;28;20109;-55
2021/11/05 13:03:42;;;;;;;4.00;2.03;;;;;;;;;;4990155;28;20133;-54
2021/11/05 13:06:11;;;;;;;2.55;1.40;;;;;;;;;;4991528;28;20050;-54
2021/11/05 13:08:39;;;;;;;2.72;1.90;;;;;;;;;;4992734;28;20049;-54
2021/11/05 13:11:06;;;;;;;6.22;2.75;;;;;;;;;;4993224;28;20098;-54
2021/11/05 13:13:32;;;;;;;6.22;3.25;;;;;;;;;;4993391;28;20126;-54
2021/11/05 13:16:08;;;;;;;3.15;2.03;;;;;;;;;;4992818;28;20050;-54
2021/11/05 13:18:37;;;;;;;2.95;1.58;;;;;;;;;;4992947;28;20077;-54
2021/11/05 13:21:03;;;;;;;2.90;1.58;;;;;;;;;;4992828;28;20049;-54
2021/11/05 13:23:33;;;;;;;7.93;2.70;;;;;;;;;;4992486;28;20046;-54
2021/11/05 13:26:00;;;;;;;7.65;2.97;;;;;;;;;;4992967;28;20062;-54
2021/11/05 13:28:27;;;;;;;8.60;2.60;;;;;;;;;;4993136;28;20500;-54
2021/11/05 13:31:01;;;;;;;10.27;4.45;;;;;;;;;;4992544;28;20125;-54
2021/11/05 13:33:32;;;;;;;5.03;2.70;;;;;;;;;;4991823;28;20076;-55
2021/11/05 13:35:59;;;;;;;3.20;1.70;;;;;;;;;;4992713;28;20046;-54
2021/11/05 13:38:26;;;;;;;5.47;2.50;;;;;;;;;;4992350;28;20043;-55
2021/11/05 13:40:58;;;;;;;6.35;2.95;;;;;;;;;;4991787;28;20144;-54
2021/11/05 13:43:25;;;;;;;5.45;2.58;;;;;;;;;;4992809;28;20125;-54
2021/11/05 13:45:57;;;;;;;4.53;2.58;;;;;;;;;;4992351;28;20466;-55
2021/11/05 13:48:25;;;;;;;2.90;1.63;;;;;;;;;;4977809;28;20121;-53
2021/11/05 13:50:52;;;;;;;8.73;3.83;;;;;;;;;;4991567;28;20534;-54
2021/11/05 13:53:20;;;;;;;13.07;5.35;;;;;;;;;;4992416;28;20096;-53
2021/11/05 13:55:46;;;;;;;16.48;6.55;;;;;;;;;;4992216;28;20074;-54
2021/11/05 13:58:24;;;;;;;16.45;6.20;;;;;;;;;;4992625;28;20042;-53
2021/11/05 14:00:51;;;;;;;9.02;4.03;;;;;;;;;;4991950;28;20090;-54
2021/11/05 14:03:19;;;;;;;10.20;5.00;;;;;;;;;;4992122;28;20078;-55
2021/11/05 14:05:45;;;;;;;5.43;3.47;;;;;;;;;;4992384;28;20101;-54
2021/11/05 14:08:13;;;;;;;5.95;2.83;;;;;;;;;;4992109;28;20089;-54
2021/11/05 14:10:48;;;;;;;6.28;3.58;;;;;;;;;;4992252;28;20117;-54
2021/11/05 14:13:15;;;;;;;6.47;3.03;;;;;;;;;;4992737;28;20125;-54
2021/11/05 14:15:41;;;;;;;14.15;3.92;;;;;;;;;;4991845;28;20054;-54
2021/11/05 14:18:18;;;;;;;6.20;3.13;;;;;;;;;;4991941;28;20051;-55
2021/11/05 14:20:48;;;;;;;3.63;1.92;;;;;;;;;;4991752;28;20450;-54
2021/11/05 14:23:29;;;;;;;10.15;4.07;;;;;;;;;;4992141;28;20125;-54
2021/11/05 14:25:56;;;;;;;9.98;4.32;;;;;;;;;;4991975;28;20108;-55
2021/11/05 14:28:23;;;;;;;14.43;4.53;;;;;;;;;;4992814;28;20506;-55
2021/11/05 14:30:59;;;;;;;15.77;5.82;;;;;;;;;;4987332;28;20138;-54
2021/11/05 14:33:26;;;;;;;7.70;3.63;;;;;;;;;;4987353;28;20497;-54
2021/11/05 14:35:52;;;;;;;14.27;4.30;;;;;;;;;;4991899;28;20046;-54
2021/11/05 14:38:18;;;;;;;10.70;4.55;;;;;;;;;;4991978;28;20096;-54
2021/11/05 14:40:45;;;;;;;7.45;3.30;;;;;;;;;;4991864;28;20089;-54
2021/11/05 14:43:13;;;;;;;11.95;4.43;;;;;;;;;;4992205;28;20514;-54
2021/11/05 14:45:44;;;;;;;9.68;3.85;;;;;;;;;;4991648;28;20387;-53